sensor_id;sensor_type;location;lat;lon;timestamp;pressure;altitude;pressure_sealevel;temperature;humidity
37078;BME280;22989;55.998;37.212;2024-03-23T00:55:40;39053.63;;;-145.39;50.03
37078;BME280;22989;55.998;37.212;2024-03-23T00:58:06;39160.94;;;-145.39;49.93
37078;BME280;22989;55.998;37.212;2024-03-23T01:00:31;39196.06;;;-145.39;50.13
37078;BME280;22989;55.998;37.212;2024-03-23T01:02:57;39211.66;;;-145.39;50.22
37078;BME280;22989;55.998;37.212;2024-03-23T01:05:22;39246.78;;;-145.39;50.29
37078;BME280;22989;55.998;37.212;2024-03-23T01:07:47;39250.69;;;-145.39;50.49
37078;BME280;22989;55.998;37.212;2024-03-23T01:10:13;39196.06;;;-145.39;50.55
37078;BME280;22989;55.998;37.212;2024-03-23T01:12:39;39172.63;;;-145.39;50.58
37078;BME280;22989;55.998;37.212;2024-03-23T01:15:04;39092.66;;;-145.39;50.64
37078;BME280;22989;55.998;37.212;2024-03-23T01:17:30;39034.13;;;-145.39;50.92
37078;BME280;22989;55.998;37.212;2024-03-23T01:19:56;38965.84;;;-145.39;50.91
37078;BME280;22989;55.998;37.212;2024-03-23T01:22:21;38852.69;;;-145.39;50.95
37078;BME280;22989;55.998;37.212;2024-03-23T01:24:46;38766.88;;;-145.39;51.13
37078;BME280;22989;55.998;37.212;2024-03-23T01:27:12;38655.69;;;-145.39;51.12
37078;BME280;22989;55.998;37.212;2024-03-23T01:29:38;38517.19;;;-145.39;51.21
37078;BME280;22989;55.998;37.212;2024-03-23T01:32:04;38380.66;;;-145.39;51.32
37078;BME280;22989;55.998;37.212;2024-03-23T01:34:30;37036.94;;;-145.39;51.37
37078;BME280;22989;55.998;37.212;2024-03-23T01:36:56;37315.78;;;-145.39;51.51
37078;BME280;22989;55.998;37.212;2024-03-23T01:39:21;37374.28;;;-145.39;51.62
37078;BME280;22989;55.998;37.212;2024-03-23T01:41:47;37403.53;;;-145.39;51.68
37078;BME280;22989;55.998;37.212;2024-03-23T01:44:12;37327.50;;;-145.39;51.86
37078;BME280;22989;55.998;37.212;2024-03-23T01:46:38;37302.16;;;-145.39;52.10
37078;BME280;22989;55.998;37.212;2024-03-23T01:49:05;37294.34;;;-145.39;52.12
37078;BME280;22989;55.998;37.212;2024-03-23T01:51:30;37292.41;;;-145.39;52.15
37078;BME280;22989;55.998;37.212;2024-03-23T01:53:58;37267.03;;;-145.39;52.38
37078;BME280;22989;55.998;37.212;2024-03-23T01:56:28;37237.78;;;-145.39;52.49
37078;BME280;22989;55.998;37.212;2024-03-23T01:58:54;37241.69;;;-145.39;52.61
37078;BME280;22989;55.998;37.212;2024-03-23T02:01:19;37210.50;;;-145.39;52.62
37078;BME280;22989;55.998;37.212;2024-03-23T02:03:45;37226.09;;;-145.39;52.69
37078;BME280;22989;55.998;37.212;2024-03-23T02:06:10;37226.09;;;-145.39;52.96
37078;BME280;22989;55.998;37.212;2024-03-23T02:08:36;37302.16;;;-145.39;52.99
37078;BME280;22989;55.998;37.212;2024-03-23T02:11:02;37347.00;;;-145.39;53.08
37078;BME280;22989;55.998;37.212;2024-03-23T02:13:27;37376.25;;;-145.39;53.15
37078;BME280;22989;55.998;37.212;2024-03-23T02:15:53;37395.75;;;-145.39;53.28
37078;BME280;22989;55.998;37.212;2024-03-23T02:18:19;37425.00;;;-145.39;53.33
37078;BME280;22989;55.998;37.212;2024-03-23T02:20:44;37448.41;;;-145.39;53.35
37078;BME280;22989;55.998;37.212;2024-03-23T02:23:16;37432.78;;;-145.39;53.65
37078;BME280;22989;55.998;37.212;2024-03-23T02:25:43;37481.56;;;-145.39;53.83
37078;BME280;22989;55.998;37.212;2024-03-23T02:28:09;37485.44;;;-145.39;53.73
37078;BME280;22989;55.998;37.212;2024-03-23T02:30:35;37518.59;;;-145.39;53.76
37078;BME280;22989;55.998;37.212;2024-03-23T02:33:01;37577.09;;;-145.39;53.99
37078;BME280;22989;55.998;37.212;2024-03-23T02:35:26;37530.31;;;-145.39;53.88
37078;BME280;22989;55.998;37.212;2024-03-23T02:37:52;37588.81;;;-145.39;53.91
37078;BME280;22989;55.998;37.212;2024-03-23T02:40:19;37629.75;;;-145.39;54.08
37078;BME280;22989;55.998;37.212;2024-03-23T02:42:45;37645.34;;;-145.39;54.21
37078;BME280;22989;55.998;37.212;2024-03-23T02:45:11;37643.41;;;-145.39;54.36
37078;BME280;22989;55.998;37.212;2024-03-23T02:47:37;37690.22;;;-145.39;54.42
37078;BME280;22989;55.998;37.212;2024-03-23T02:50:03;37709.72;;;-145.39;54.42
37078;BME280;22989;55.998;37.212;2024-03-23T02:52:30;37737.03;;;-145.39;54.58
37078;BME280;22989;55.998;37.212;2024-03-23T02:54:55;37746.78;;;-145.39;54.65
37078;BME280;22989;55.998;37.212;2024-03-23T02:57:21;37777.97;;;-145.39;54.76
37078;BME280;22989;55.998;37.212;2024-03-23T02:59:46;37809.19;;;-145.39;55.03
37078;BME280;22989;55.998;37.212;2024-03-23T03:02:13;37836.47;;;-145.39;55.14
37078;BME280;22989;55.998;37.212;2024-03-23T03:04:38;37873.53;;;-145.39;55.22
37078;BME280;22989;55.998;37.212;2024-03-23T03:07:04;37943.75;;;-145.39;55.29
37078;BME280;22989;55.998;37.212;2024-03-23T03:09:29;37984.69;;;-145.39;55.42
37078;BME280;22989;55.998;37.212;2024-03-23T03:11:55;38017.84;;;-145.39;55.54
37078;BME280;22989;55.998;37.212;2024-03-23T03:14:21;38095.88;;;-145.39;55.72
37078;BME280;22989;55.998;37.212;2024-03-23T03:16:46;38142.69;;;-145.39;55.65
37078;BME280;22989;55.998;37.212;2024-03-23T03:19:12;38244.09;;;-145.39;55.88
37078;BME280;22989;55.998;37.212;2024-03-23T03:21:38;38292.88;;;-145.39;55.96
37078;BME280;22989;55.998;37.212;2024-03-23T03:24:06;38404.06;;;-145.39;56.15
37078;BME280;22989;55.998;37.212;2024-03-23T03:26:31;38608.88;;;-145.39;56.27
37078;BME280;22989;55.998;37.212;2024-03-23T03:28:57;38829.28;;;-145.39;56.23
37078;BME280;22989;55.998;37.212;2024-03-23T03:31:23;39157.03;;;-145.39;56.29
37078;BME280;22989;55.998;37.212;2024-03-23T03:33:49;39869.19;;;-145.39;56.29
37078;BME280;22989;55.998;37.212;2024-03-23T03:36:16;40796.16;;;-145.39;56.43
37078;BME280;22989;55.998;37.212;2024-03-23T03:38:41;41883.41;;;-145.39;56.42
37078;BME280;22989;55.998;37.212;2024-03-23T03:41:07;42508.19;;;-145.39;56.61
37078;BME280;22989;55.998;37.212;2024-03-23T03:43:32;42519.91;;;-145.39;56.65
37078;BME280;22989;55.998;37.212;2024-03-23T03:45:59;42539.44;;;-145.39;56.66
37078;BME280;22989;55.998;37.212;2024-03-23T03:48:25;42629.25;;;-145.39;56.73
37078;BME280;22989;55.998;37.212;2024-03-23T03:50:52;42545.28;;;-145.39;56.83
37078;BME280;22989;55.998;37.212;2024-03-23T03:53:18;42611.69;;;-145.39;56.98
37078;BME280;22989;55.998;37.212;2024-03-23T03:55:44;42687.84;;;-145.39;56.98
37078;BME280;22989;55.998;37.212;2024-03-23T03:58:09;42748.38;;;-145.39;56.99
37078;BME280;22989;55.998;37.212;2024-03-23T04:00:35;42668.31;;;-145.39;56.92
37078;BME280;22989;55.998;37.212;2024-03-23T04:03:01;42806.94;;;-145.39;57.11
37078;BME280;22989;55.998;37.212;2024-03-23T04:05:27;42838.19;;;-145.39;57.11
37078;BME280;22989;55.998;37.212;2024-03-23T04:07:52;43023.72;;;-145.39;57.26
37078;BME280;22989;55.998;37.212;2024-03-23T04:10:20;43006.13;;;-145.39;57.26
37078;BME280;22989;55.998;37.212;2024-03-23T04:12:45;42986.59;;;-145.39;57.36
37078;BME280;22989;55.998;37.212;2024-03-23T04:15:11;43111.59;;;-145.39;57.46
37078;BME280;22989;55.998;37.212;2024-03-23T04:17:37;43080.34;;;-145.39;57.50
37078;BME280;22989;55.998;37.212;2024-03-23T04:20:03;43072.53;;;-145.39;57.31
37078;BME280;22989;55.998;37.212;2024-03-23T04:22:33;43017.84;;;-145.39;57.24
37078;BME280;22989;55.998;37.212;2024-03-23T04:25:00;43058.88;;;-145.39;57.34
37078;BME280;22989;55.998;37.212;2024-03-23T04:27:28;42996.38;;;-145.39;57.32
37078;BME280;22989;55.998;37.212;2024-03-23T04:29:54;42965.13;;;-145.39;57.58
37078;BME280;22989;55.998;37.212;2024-03-23T04:32:19;43006.13;;;-145.39;57.34
37078;BME280;22989;55.998;37.212;2024-03-23T04:34:45;42922.16;;;-145.39;57.26
37078;BME280;22989;55.998;37.212;2024-03-23T04:37:10;42963.16;;;-145.39;57.31
37078;BME280;22989;55.998;37.212;2024-03-23T04:39:37;42943.66;;;-145.39;57.37
37078;BME280;22989;55.998;37.212;2024-03-23T04:42:03;42947.56;;;-145.39;57.45
37078;BME280;22989;55.998;37.212;2024-03-23T04:44:29;42994.41;;;-145.39;57.41
37078;BME280;22989;55.998;37.212;2024-03-23T04:46:56;42994.41;;;-145.39;57.40
37078;BME280;22989;55.998;37.212;2024-03-23T04:49:23;43006.13;;;-145.39;57.55
37078;BME280;22989;55.998;37.212;2024-03-23T04:51:49;43012.00;;;-145.39;57.59
37078;BME280;22989;55.998;37.212;2024-03-23T04:54:15;42980.75;;;-145.39;57.47
37078;BME280;22989;55.998;37.212;2024-03-23T04:56:41;42976.84;;;-145.39;57.48
37078;BME280;22989;55.998;37.212;2024-03-23T04:59:07;43010.03;;;-145.39;57.54
37078;BME280;22989;55.998;37.212;2024-03-23T05:01:32;43090.09;;;-145.39;57.65
37078;BME280;22989;55.998;37.212;2024-03-23T05:04:02;43043.25;;;-145.39;57.66
37078;BME280;22989;55.998;37.212;2024-03-23T05:06:27;43056.91;;;-145.39;57.65
37078;BME280;22989;55.998;37.212;2024-03-23T05:08:54;43101.81;;;-145.39;57.74
37078;BME280;22989;55.998;37.212;2024-03-23T05:11:19;43054.97;;;-145.39;57.81
37078;BME280;22989;55.998;37.212;2024-03-23T05:13:46;43056.91;;;-145.39;57.92
37078;BME280;22989;55.998;37.212;2024-03-23T05:16:11;43056.91;;;-145.39;57.99
37078;BME280;22989;55.998;37.212;2024-03-23T05:18:37;43053.00;;;-145.39;57.90
37078;BME280;22989;55.998;37.212;2024-03-23T05:21:03;43043.25;;;-145.39;58.04
37078;BME280;22989;55.998;37.212;2024-03-23T05:23:29;43070.56;;;-145.39;58.02
37078;BME280;22989;55.998;37.212;2024-03-23T05:25:55;43088.16;;;-145.39;57.97
37078;BME280;22989;55.998;37.212;2024-03-23T05:28:21;43097.91;;;-145.39;58.14
37078;BME280;22989;55.998;37.212;2024-03-23T05:30:50;43123.31;;;-145.39;58.17
37078;BME280;22989;55.998;37.212;2024-03-23T05:33:18;43101.81;;;-145.39;58.16
37078;BME280;22989;55.998;37.212;2024-03-23T05:35:43;43142.84;;;-145.39;58.21
37078;BME280;22989;55.998;37.212;2024-03-23T05:38:09;43195.56;;;-145.39;58.20
37078;BME280;22989;55.998;37.212;2024-03-23T05:40:34;43154.56;;;-145.39;58.19
37078;BME280;22989;55.998;37.212;2024-03-23T05:43:03;43228.75;;;-145.39;58.22
37078;BME280;22989;55.998;37.212;2024-03-23T05:45:29;43301.03;;;-145.39;58.37
37078;BME280;22989;55.998;37.212;2024-03-23T05:47:54;43211.19;;;-145.39;58.36
37078;BME280;22989;55.998;37.212;2024-03-23T05:50:22;43230.72;;;-145.39;58.38
37078;BME280;22989;55.998;37.212;2024-03-23T05:52:49;43181.91;;;-145.39;58.30
37078;BME280;22989;55.998;37.212;2024-03-23T05:55:14;43244.38;;;-145.39;58.38
37078;BME280;22989;55.998;37.212;2024-03-23T05:57:40;43236.56;;;-145.39;58.40
37078;BME280;22989;55.998;37.212;2024-03-23T06:00:06;43312.75;;;-145.39;58.33
37078;BME280;22989;55.998;37.212;2024-03-23T06:02:37;43193.63;;;-145.39;58.48
37078;BME280;22989;55.998;37.212;2024-03-23T06:05:03;43230.72;;;-145.39;58.50
37078;BME280;22989;55.998;37.212;2024-03-23T06:07:28;43265.88;;;-145.39;58.50
37078;BME280;22989;55.998;37.212;2024-03-23T06:09:54;43258.06;;;-145.39;58.67
37078;BME280;22989;55.998;37.212;2024-03-23T06:12:19;43267.81;;;-145.39;58.63
37078;BME280;22989;55.998;37.212;2024-03-23T06:14:46;43258.06;;;-145.39;58.66
37078;BME280;22989;55.998;37.212;2024-03-23T06:17:13;43263.91;;;-145.39;58.70
37078;BME280;22989;55.998;37.212;2024-03-23T06:19:39;43275.63;;;-145.39;58.65
37078;BME280;22989;55.998;37.212;2024-03-23T06:22:04;43273.69;;;-145.39;58.80
37078;BME280;22989;55.998;37.212;2024-03-23T06:24:32;43381.09;;;-145.39;58.78
37078;BME280;22989;55.998;37.212;2024-03-23T06:26:57;43248.28;;;-145.39;58.77
37078;BME280;22989;55.998;37.212;2024-03-23T06:29:23;43219.00;;;-145.39;58.76
37078;BME280;22989;55.998;37.212;2024-03-23T06:31:53;43287.34;;;-145.39;58.78
37078;BME280;22989;55.998;37.212;2024-03-23T06:34:19;43226.81;;;-145.39;58.83
37078;BME280;22989;55.998;37.212;2024-03-23T06:36:47;43301.03;;;-145.39;58.80
37078;BME280;22989;55.998;37.212;2024-03-23T06:39:12;43301.03;;;-145.39;58.86
37078;BME280;22989;55.998;37.212;2024-03-23T06:41:42;43295.16;;;-145.39;58.92
37078;BME280;22989;55.998;37.212;2024-03-23T06:44:07;43238.53;;;-145.39;58.94
37078;BME280;22989;55.998;37.212;2024-03-23T06:46:33;43408.44;;;-145.39;59.04
37078;BME280;22989;55.998;37.212;2024-03-23T06:48:58;43302.97;;;-145.39;58.89
37078;BME280;22989;55.998;37.212;2024-03-23T06:51:24;43545.16;;;-145.39;59.13
37078;BME280;22989;55.998;37.212;2024-03-23T06:53:49;43326.41;;;-145.39;58.99
37078;BME280;22989;55.998;37.212;2024-03-23T06:56:15;43398.69;;;-145.39;59.02
37078;BME280;22989;55.998;37.212;2024-03-23T06:58:40;43527.56;;;-145.39;59.08
37078;BME280;22989;55.998;37.212;2024-03-23T07:01:06;43541.25;;;-145.39;59.06
37078;BME280;22989;55.998;37.212;2024-03-23T07:03:32;42974.88;;;-145.39;59.13
37078;BME280;22989;55.998;37.212;2024-03-23T07:05:58;43429.91;;;-145.39;59.06
37078;BME280;22989;55.998;37.212;2024-03-23T07:08:24;43457.25;;;-145.39;59.13
37078;BME280;22989;55.998;37.212;2024-03-23T07:10:49;43482.66;;;-145.39;59.04
37078;BME280;22989;55.998;37.212;2024-03-23T07:13:15;43513.91;;;-145.39;59.02
37078;BME280;22989;55.998;37.212;2024-03-23T07:15:42;43486.56;;;-145.39;59.00
37078;BME280;22989;55.998;37.212;2024-03-23T07:18:08;43502.19;;;-145.39;58.99
37078;BME280;22989;55.998;37.212;2024-03-23T07:20:33;43439.69;;;-145.39;58.87
37078;BME280;22989;55.998;37.212;2024-03-23T07:22:59;43445.53;;;-145.39;58.77
37078;BME280;22989;55.998;37.212;2024-03-23T07:25:24;43467.03;;;-145.39;58.84
37078;BME280;22989;55.998;37.212;2024-03-23T07:27:51;43381.09;;;-145.39;58.79
37078;BME280;22989;55.998;37.212;2024-03-23T07:30:18;43453.34;;;-145.39;58.80
37078;BME280;22989;55.998;37.212;2024-03-23T07:32:46;43472.88;;;-145.39;58.85
37078;BME280;22989;55.998;37.212;2024-03-23T07:35:12;43418.19;;;-145.39;58.71
37078;BME280;22989;55.998;37.212;2024-03-23T07:37:38;43511.94;;;-145.39;58.78
37078;BME280;22989;55.998;37.212;2024-03-23T07:40:04;43373.28;;;-145.39;58.75
37078;BME280;22989;55.998;37.212;2024-03-23T07:42:30;43447.50;;;-145.39;58.67
37078;BME280;22989;55.998;37.212;2024-03-23T07:44:55;43525.63;;;-145.39;58.74
37078;BME280;22989;55.998;37.212;2024-03-23T07:47:22;43549.06;;;-145.39;58.67
37078;BME280;22989;55.998;37.212;2024-03-23T07:49:48;43498.28;;;-145.39;58.68
37078;BME280;22989;55.998;37.212;2024-03-23T07:52:13;43457.25;;;-145.39;58.64
37078;BME280;22989;55.998;37.212;2024-03-23T07:54:39;43445.53;;;-145.39;58.65
37078;BME280;22989;55.998;37.212;2024-03-23T07:57:05;43404.53;;;-145.39;58.53
37078;BME280;22989;55.998;37.212;2024-03-23T07:59:31;43396.72;;;-145.39;58.58
37078;BME280;22989;55.998;37.212;2024-03-23T08:01:59;43510.00;;;-145.39;58.51
37078;BME280;22989;55.998;37.212;2024-03-23T08:04:25;43521.72;;;-145.39;58.46
37078;BME280;22989;55.998;37.212;2024-03-23T08:06:50;43472.88;;;-145.39;58.58
37078;BME280;22989;55.998;37.212;2024-03-23T08:09:16;43461.16;;;-145.39;58.46
37078;BME280;22989;55.998;37.212;2024-03-23T08:11:41;43558.81;;;-145.39;58.42
37078;BME280;22989;55.998;37.212;2024-03-23T08:14:09;43531.47;;;-145.39;58.41
37078;BME280;22989;55.998;37.212;2024-03-23T08:16:35;43463.13;;;-145.39;58.29
37078;BME280;22989;55.998;37.212;2024-03-23T08:19:00;43498.28;;;-145.39;58.29
37078;BME280;22989;55.998;37.212;2024-03-23T08:21:28;43351.81;;;-145.39;58.41
37078;BME280;22989;55.998;37.212;2024-03-23T08:23:54;43492.41;;;-145.39;58.33
37078;BME280;22989;55.998;37.212;2024-03-23T08:26:19;43470.94;;;-145.39;58.35
37078;BME280;22989;55.998;37.212;2024-03-23T08:28:45;43414.28;;;-145.39;58.25
37078;BME280;22989;55.998;37.212;2024-03-23T08:31:12;43400.63;;;-145.39;58.44
37078;BME280;22989;55.998;37.212;2024-03-23T08:33:38;43453.34;;;-145.39;58.40
37078;BME280;22989;55.998;37.212;2024-03-23T08:36:06;43480.69;;;-145.39;58.45
37078;BME280;22989;55.998;37.212;2024-03-23T08:38:33;43506.09;;;-145.39;58.45
37078;BME280;22989;55.998;37.212;2024-03-23T08:41:03;43447.50;;;-145.39;58.48
37078;BME280;22989;55.998;37.212;2024-03-23T08:43:30;43441.63;;;-145.39;58.45
37078;BME280;22989;55.998;37.212;2024-03-23T08:46:15;43502.19;;;-145.39;58.45
37078;BME280;22989;55.998;37.212;2024-03-23T08:48:45;43441.63;;;-145.39;58.42
37078;BME280;22989;55.998;37.212;2024-03-23T08:51:12;43367.44;;;-145.39;58.49
37078;BME280;22989;55.998;37.212;2024-03-23T08:53:38;43369.38;;;-145.39;58.53
37078;BME280;22989;55.998;37.212;2024-03-23T08:56:05;43408.44;;;-145.39;58.40
37078;BME280;22989;55.998;37.212;2024-03-23T08:58:32;43418.19;;;-145.39;58.31
37078;BME280;22989;55.998;37.212;2024-03-23T09:01:12;43455.31;;;-145.39;58.43
37078;BME280;22989;55.998;37.212;2024-03-23T09:03:41;43404.53;;;-145.39;58.42
37078;BME280;22989;55.998;37.212;2024-03-23T09:08:34;43418.19;;;-145.39;58.43
37078;BME280;22989;55.998;37.212;2024-03-23T09:11:05;43365.47;;;-145.39;58.50
37078;BME280;22989;55.998;37.212;2024-03-23T09:13:34;43308.84;;;-145.39;58.41
37078;BME280;22989;55.998;37.212;2024-03-23T09:15:59;43402.56;;;-145.39;58.36
37078;BME280;22989;55.998;37.212;2024-03-23T09:18:25;43418.19;;;-145.39;58.31
37078;BME280;22989;55.998;37.212;2024-03-23T09:20:51;43388.91;;;-145.39;58.20
37078;BME280;22989;55.998;37.212;2024-03-23T09:23:18;43420.16;;;-145.39;58.29
37078;BME280;22989;55.998;37.212;2024-03-23T09:25:44;43422.09;;;-145.39;58.29
37078;BME280;22989;55.998;37.212;2024-03-23T09:28:10;43383.06;;;-145.39;58.29
37078;BME280;22989;55.998;37.212;2024-03-23T09:30:36;43340.09;;;-145.39;58.13
37078;BME280;22989;55.998;37.212;2024-03-23T09:33:10;43344.00;;;-145.39;58.15
37078;BME280;22989;55.998;37.212;2024-03-23T09:35:39;43304.94;;;-145.39;58.09
37078;BME280;22989;55.998;37.212;2024-03-23T09:38:06;43344.00;;;-145.39;58.13
37078;BME280;22989;55.998;37.212;2024-03-23T09:40:39;43359.63;;;-145.39;58.10
37078;BME280;22989;55.998;37.212;2024-03-23T09:43:06;43314.69;;;-145.39;58.03
37078;BME280;22989;55.998;37.212;2024-03-23T09:45:34;43381.09;;;-145.39;58.02
37078;BME280;22989;55.998;37.212;2024-03-23T09:48:02;43326.41;;;-145.39;57.99
37078;BME280;22989;55.998;37.212;2024-03-23T09:50:28;43388.91;;;-145.39;58.03
37078;BME280;22989;55.998;37.212;2024-03-23T09:52:54;43326.41;;;-145.39;57.87
37078;BME280;22989;55.998;37.212;2024-03-23T09:55:19;43332.28;;;-145.39;58.00
37078;BME280;22989;55.998;37.212;2024-03-23T09:57:45;43324.47;;;-145.39;57.90
37078;BME280;22989;55.998;37.212;2024-03-23T10:00:11;43281.50;;;-145.39;57.91
37078;BME280;22989;55.998;37.212;2024-03-23T10:02:37;43295.16;;;-145.39;57.92
37078;BME280;22989;55.998;37.212;2024-03-23T10:05:03;43342.03;;;-145.39;57.75
37078;BME280;22989;55.998;37.212;2024-03-23T10:07:29;43304.94;;;-145.39;57.78
37078;BME280;22989;55.998;37.212;2024-03-23T10:09:55;43385.00;;;-145.39;57.68
37078;BME280;22989;55.998;37.212;2024-03-23T10:12:20;43373.28;;;-145.39;57.79
37078;BME280;22989;55.998;37.212;2024-03-23T10:14:46;43383.06;;;-145.39;57.83
37078;BME280;22989;55.998;37.212;2024-03-23T10:17:19;43361.56;;;-145.39;57.78
37078;BME280;22989;55.998;37.212;2024-03-23T10:19:50;43318.59;;;-145.39;57.69
37078;BME280;22989;55.998;37.212;2024-03-23T10:22:22;43322.50;;;-145.39;57.62
37078;BME280;22989;55.998;37.212;2024-03-23T10:24:49;43295.16;;;-145.39;57.54
37078;BME280;22989;55.998;37.212;2024-03-23T10:27:21;43263.91;;;-145.39;57.55
37078;BME280;22989;55.998;37.212;2024-03-23T10:29:50;43246.34;;;-145.39;57.53
37078;BME280;22989;55.998;37.212;2024-03-23T10:32:17;43209.22;;;-145.39;57.44
37078;BME280;22989;55.998;37.212;2024-03-23T10:34:43;43219.00;;;-145.39;57.43
37078;BME280;22989;55.998;37.212;2024-03-23T10:37:09;43289.31;;;-145.39;57.36
37078;BME280;22989;55.998;37.212;2024-03-23T10:39:37;43193.63;;;-145.39;57.30
37078;BME280;22989;55.998;37.212;2024-03-23T10:42:05;43224.84;;;-145.39;57.28
37078;BME280;22989;55.998;37.212;2024-03-23T10:44:31;43205.31;;;-145.39;56.85
37078;BME280;22989;55.998;37.212;2024-03-23T10:46:58;43267.81;;;-145.39;56.97
37078;BME280;22989;55.998;37.212;2024-03-23T10:49:31;43261.97;;;-145.39;56.97
37078;BME280;22989;55.998;37.212;2024-03-23T10:52:02;36765.94;;;-145.39;56.69
37078;BME280;22989;55.998;37.212;2024-03-23T10:54:30;42469.16;;;-145.39;57.01
37078;BME280;22989;55.998;37.212;2024-03-23T10:57:14;43209.22;;;-145.39;57.05
37078;BME280;22989;55.998;37.212;2024-03-23T10:59:43;43240.47;;;-145.39;57.03
37078;BME280;22989;55.998;37.212;2024-03-23T11:02:19;43244.38;;;-145.39;57.01
37078;BME280;22989;55.998;37.212;2024-03-23T11:04:45;43178.00;;;-145.39;56.90
37078;BME280;22989;55.998;37.212;2024-03-23T11:07:33;43224.84;;;-145.39;56.80
37078;BME280;22989;55.998;37.212;2024-03-23T11:09:59;43187.75;;;-145.39;56.79
37078;BME280;22989;55.998;37.212;2024-03-23T11:12:29;43172.13;;;-145.39;56.74
37078;BME280;22989;55.998;37.212;2024-03-23T11:15:04;43158.47;;;-145.39;56.68
37078;BME280;22989;55.998;37.212;2024-03-23T11:17:31;43220.94;;;-145.39;56.80
37078;BME280;22989;55.998;37.212;2024-03-23T11:20:01;43215.09;;;-145.39;56.80
37078;BME280;22989;55.998;37.212;2024-03-23T11:22:46;43224.84;;;-145.39;56.90
37078;BME280;22989;55.998;37.212;2024-03-23T11:25:23;43189.72;;;-145.39;56.95
37078;BME280;22989;55.998;37.212;2024-03-23T11:27:53;43111.59;;;-145.39;56.89
37078;BME280;22989;55.998;37.212;2024-03-23T11:30:21;43117.44;;;-145.39;56.93
37078;BME280;22989;55.998;37.212;2024-03-23T11:32:54;43195.56;;;-145.39;57.07
37078;BME280;22989;55.998;37.212;2024-03-23T11:35:30;43195.56;;;-145.39;57.41
37078;BME280;22989;55.998;37.212;2024-03-23T11:38:14;43127.22;;;-145.39;57.12
37078;BME280;22989;55.998;37.212;2024-03-23T11:40:42;43113.53;;;-145.39;57.58
37078;BME280;22989;55.998;37.212;2024-03-23T11:43:10;43158.47;;;-145.39;57.48
37078;BME280;22989;55.998;37.212;2024-03-23T11:45:42;43232.66;;;-145.39;57.60
37078;BME280;22989;55.998;37.212;2024-03-23T11:48:11;43209.22;;;-145.39;57.76
37078;BME280;22989;55.998;37.212;2024-03-23T11:50:42;43252.19;;;-145.39;57.98
37078;BME280;22989;55.998;37.212;2024-03-23T11:55:43;43256.09;;;-145.39;58.04
37078;BME280;22989;55.998;37.212;2024-03-23T11:58:10;43232.66;;;-145.39;58.13
37078;BME280;22989;55.998;37.212;2024-03-23T12:00:38;43234.63;;;-145.39;58.31
37078;BME280;22989;55.998;37.212;2024-03-23T12:03:05;43289.31;;;-145.39;58.18
37078;BME280;22989;55.998;37.212;2024-03-23T12:05:33;43172.13;;;-145.39;58.35
37078;BME280;22989;55.998;37.212;2024-03-23T12:11:04;43101.81;;;-145.39;58.53
37078;BME280;22989;55.998;37.212;2024-03-23T12:13:29;43072.53;;;-145.39;58.48
37078;BME280;22989;55.998;37.212;2024-03-23T12:16:18;42967.06;;;-145.39;58.67
37078;BME280;22989;55.998;37.212;2024-03-23T12:18:49;42963.16;;;-145.39;58.62
37078;BME280;22989;55.998;37.212;2024-03-23T12:21:16;42986.59;;;-145.39;58.86
37078;BME280;22989;55.998;37.212;2024-03-23T12:23:43;43043.25;;;-145.39;58.96
37078;BME280;22989;55.998;37.212;2024-03-23T12:26:10;43115.50;;;-145.39;59.11
37078;BME280;22989;55.998;37.212;2024-03-23T12:28:37;43240.47;;;-145.39;59.13
37078;BME280;22989;55.998;37.212;2024-03-23T12:31:03;43226.81;;;-145.39;59.15
37078;BME280;22989;55.998;37.212;2024-03-23T12:33:28;43197.50;;;-145.39;59.31
37078;BME280;22989;55.998;37.212;2024-03-23T12:35:54;43021.75;;;-145.39;59.26
37078;BME280;22989;55.998;37.212;2024-03-23T12:38:20;42857.72;;;-145.39;59.25
37078;BME280;22989;55.998;37.212;2024-03-23T12:40:49;42806.94;;;-145.39;59.38
37078;BME280;22989;55.998;37.212;2024-03-23T12:43:15;42836.25;;;-145.39;59.52
37078;BME280;22989;55.998;37.212;2024-03-23T12:45:48;42890.91;;;-145.39;59.56
37078;BME280;22989;55.998;37.212;2024-03-23T12:48:14;42949.50;;;-145.39;59.57
37078;BME280;22989;55.998;37.212;2024-03-23T12:50:40;43051.06;;;-145.39;59.60
37078;BME280;22989;55.998;37.212;2024-03-23T12:53:05;42988.56;;;-145.39;59.67
37078;BME280;22989;55.998;37.212;2024-03-23T12:55:31;42996.38;;;-145.39;59.84
37078;BME280;22989;55.998;37.212;2024-03-23T12:57:56;43056.91;;;-145.39;59.94
37078;BME280;22989;55.998;37.212;2024-03-23T13:00:22;43054.97;;;-145.39;60.05
37078;BME280;22989;55.998;37.212;2024-03-23T13:02:48;43056.91;;;-145.39;59.98
37078;BME280;22989;55.998;37.212;2024-03-23T13:05:13;43090.09;;;-145.39;60.11
37078;BME280;22989;55.998;37.212;2024-03-23T13:07:39;43121.34;;;-145.39;60.06
37078;BME280;22989;55.998;37.212;2024-03-23T13:10:05;43135.03;;;-145.39;60.11
37078;BME280;22989;55.998;37.212;2024-03-23T13:12:31;43101.81;;;-145.39;60.15
37078;BME280;22989;55.998;37.212;2024-03-23T13:14:58;43060.81;;;-145.39;60.08
37078;BME280;22989;55.998;37.212;2024-03-23T13:17:24;43070.56;;;-145.39;60.09
37078;BME280;22989;55.998;37.212;2024-03-23T13:19:49;43023.72;;;-145.39;60.13
37078;BME280;22989;55.998;37.212;2024-03-23T13:22:16;42978.78;;;-145.39;60.26
37078;BME280;22989;55.998;37.212;2024-03-23T13:24:41;42935.84;;;-145.39;60.41
37078;BME280;22989;55.998;37.212;2024-03-23T13:27:08;43004.19;;;-145.39;60.30
37078;BME280;22989;55.998;37.212;2024-03-23T13:29:34;42994.41;;;-145.39;60.37
37078;BME280;22989;55.998;37.212;2024-03-23T13:32:06;42855.78;;;-145.39;60.43